createdAt,value
2018-11-20T00:00:25.237Z,28.27
2018-11-20T00:03:14.328Z,30.63
2018-11-20T00:06:17.005Z,28.50
2018-11-20T00:09:12.702Z,27.40
2018-11-20T00:12:05.203Z,25.53
2018-11-20T00:15:06.733Z,24.47
2018-11-20T00:17:47.809Z,23.37
2018-11-20T00:20:49.395Z,21.90
2018-11-20T00:23:33.530Z,23.63
2018-11-20T00:26:32.429Z,23.37
2018-11-20T00:29:12.664Z,22.00
2018-11-20T00:32:02.221Z,22.40
2018-11-20T00:34:57.527Z,21.30
2018-11-20T00:37:47.041Z,21.57
2018-11-20T00:40:42.560Z,19.73
2018-11-20T00:43:40.257Z,22.00
2018-11-20T00:46:39.031Z,20.77
2018-11-20T00:49:27.769Z,21.23
2018-11-20T00:52:30.105Z,20.90
2018-11-20T00:55:34.792Z,20.27
2018-11-20T00:58:23.129Z,22.67
2018-11-20T01:01:22.853Z,23.50
2018-11-20T01:04:14.223Z,22.50
2018-11-20T01:07:00.179Z,23.60
2018-11-20T01:09:47.430Z,22.50
2018-11-20T01:12:42.633Z,24.87
2018-11-20T01:15:35.078Z,24.13
2018-11-20T01:18:23.417Z,23.33
2018-11-20T01:21:11.415Z,22.00
2018-11-20T01:24:00.588Z,21.60
2018-11-20T01:26:44.682Z,21.70
2018-11-20T01:29:36.690Z,21.17
2018-11-20T01:32:32.138Z,21.77
2018-11-20T01:35:28.362Z,20.87
2018-11-20T01:38:22.615Z,19.47
2018-11-20T01:41:03.352Z,18.83
2018-11-20T01:43:51.050Z,20.37
2018-11-20T01:46:30.934Z,18.60
2018-11-20T01:49:11.127Z,18.17
2018-11-20T01:51:53.603Z,17.27
2018-11-20T01:54:39.115Z,15.57
2018-11-20T01:57:27.452Z,17.67
2018-11-20T02:00:14.093Z,18.53
2018-11-20T02:03:13.265Z,18.27
2018-11-20T02:06:01.355Z,14.33
2018-11-20T02:09:00.885Z,16.30
2018-11-20T02:12:03.741Z,16.00
2018-11-20T02:15:00.001Z,16.27
2018-11-20T02:18:04.998Z,16.80
2018-11-20T02:20:56.556Z,15.53
2018-11-20T02:23:35.966Z,17.57
2018-11-20T02:26:17.905Z,15.20
2018-11-20T02:29:10.256Z,17.93
2018-11-20T02:32:11.944Z,18.20
2018-11-20T02:35:16.485Z,19.13
2018-11-20T02:38:06.029Z,17.40
2018-11-20T02:40:54.411Z,20.30
2018-11-20T02:43:43.134Z,22.67
2018-11-20T02:46:42.026Z,18.63
2018-11-20T02:49:30.179Z,21.77
2018-11-20T02:52:37.877Z,21.60
2018-11-20T02:55:30.328Z,23.27
2018-11-20T02:58:29.632Z,24.77
2018-11-20T03:01:10.462Z,24.73
2018-11-20T03:04:06.161Z,27.67
2018-11-20T03:07:05.674Z,28.73
2018-11-20T03:10:04.516Z,27.87
2018-11-20T03:12:59.714Z,30.53
2018-11-20T03:16:04.123Z,29.30
2018-11-20T03:18:45.826Z,28.57
2018-11-20T03:21:35.444Z,26.67
2018-11-20T03:24:23.277Z,30.17
2018-11-20T03:27:28.856Z,28.77
2018-11-20T03:30:56.240Z,29.43
2018-11-20T03:33:46.456Z,30.73
2018-11-20T03:36:46.615Z,29.27
2018-11-20T03:39:48.430Z,30.80
2018-11-20T03:42:25.607Z,29.73
2018-11-20T03:45:23.970Z,27.67
2018-11-20T03:48:12.085Z,29.53
2018-11-20T03:51:04.330Z,29.03
2018-11-20T03:53:56.257Z,27.00
2018-11-20T03:56:45.555Z,26.93
2018-11-20T03:59:36.377Z,25.80
2018-11-20T04:02:44.358Z,26.50
2018-11-20T04:05:42.946Z,24.73
2018-11-20T04:08:33.047Z,23.70
2018-11-20T04:11:45.714Z,25.30
2018-11-20T04:14:34.236Z,22.60
2018-11-20T04:17:27.987Z,23.47
2018-11-20T04:20:16.740Z,22.03
2018-11-20T04:23:04.707Z,24.90
2018-11-20T04:25:54.023Z,22.27
2018-11-20T04:28:46.519Z,23.73
2018-11-20T04:32:02.530Z,25.37
2018-11-20T04:35:01.060Z,21.87
2018-11-20T04:37:49.225Z,26.87
2018-11-20T04:40:50.882Z,23.60
2018-11-20T04:43:39.140Z,28.00
2018-11-20T04:46:29.357Z,27.77
2018-11-20T04:49:19.843Z,30.60
2018-11-20T04:52:02.278Z,26.87
2018-11-20T04:54:54.643Z,26.33
2018-11-20T04:57:42.933Z,24.27
2018-11-20T05:00:26.190Z,24.17
2018-11-20T05:03:05.809Z,28.67
2018-11-20T05:05:54.265Z,27.27
2018-11-20T05:08:43.553Z,28.13
2018-11-20T05:11:35.969Z,29.20
2018-11-20T05:14:35.565Z,26.83
2018-11-20T05:17:27.754Z,28.07
2018-11-20T05:20:18.208Z,26.93
2018-11-20T05:23:12.366Z,27.10
2018-11-20T05:26:20.008Z,25.57
2018-11-20T05:29:08.162Z,26.57
2018-11-20T05:32:01.545Z,28.50
2018-11-20T05:34:50.081Z,25.67
2018-11-20T05:37:46.762Z,27.27
2018-11-20T05:40:45.175Z,27.47
2018-11-20T05:43:34.350Z,23.33
2018-11-20T05:46:31.309Z,29.17
2018-11-20T05:49:19.737Z,29.50
2018-11-20T05:52:19.530Z,26.13
2018-11-20T05:54:58.688Z,26.03
2018-11-20T05:57:47.214Z,27.13
2018-11-20T06:00:36.659Z,27.57
2018-11-20T06:03:25.407Z,26.23
2018-11-20T06:06:12.911Z,26.77
2018-11-20T06:09:17.566Z,24.70
2018-11-20T06:12:25.104Z,26.00
2018-11-20T06:15:20.723Z,25.97
2018-11-20T06:18:25.341Z,23.67
2018-11-20T06:21:13.089Z,25.67
2018-11-20T06:24:02.683Z,25.07
2018-11-20T06:27:07.132Z,25.33
2018-11-20T06:29:56.761Z,27.27
2018-11-20T06:32:55.258Z,24.50
2018-11-20T06:35:54.821Z,26.93
2018-11-20T06:38:50.010Z,26.63
2018-11-20T06:41:40.580Z,22.27
2018-11-20T06:44:30.165Z,22.47
2018-11-20T06:47:18.208Z,21.63
2018-11-20T06:50:07.564Z,23.07
2018-11-20T06:53:13.093Z,22.80
2018-11-20T06:56:09.141Z,21.33
2018-11-20T06:59:07.590Z,20.57
2018-11-20T07:02:06.206Z,59.07
2018-11-20T07:05:01.463Z,30.20
2018-11-20T07:07:55.559Z,28.50
2018-11-20T07:10:50.830Z,22.00
2018-11-20T07:13:57.659Z,19.17
2018-11-20T07:16:50.649Z,19.23
2018-11-20T07:19:45.349Z,18.50
2018-11-20T07:22:50.862Z,18.20
2018-11-20T07:25:55.538Z,17.70
2018-11-20T07:28:40.332Z,16.63
2018-11-20T07:31:33.244Z,15.93
2018-11-20T07:34:25.858Z,14.77
2018-11-20T07:37:23.607Z,14.23
2018-11-20T07:40:18.799Z,16.20
2018-11-20T07:43:15.272Z,15.17
2018-11-20T07:46:16.868Z,16.33
2018-11-20T07:49:09.105Z,17.60
2018-11-20T07:52:01.663Z,16.80
2018-11-20T07:54:46.223Z,17.53
2018-11-20T07:57:49.289Z,17.30
2018-11-20T08:00:36.533Z,17.07
2018-11-20T08:03:35.065Z,16.83
2018-11-20T08:06:23.279Z,19.00
2018-11-20T08:09:12.808Z,17.03
2018-11-20T08:11:56.663Z,15.80
2018-11-20T08:14:44.726Z,17.10
2018-11-20T08:17:37.714Z,15.60
2018-11-20T08:20:30.703Z,16.83
2018-11-20T08:23:19.137Z,16.50
2018-11-20T08:26:11.959Z,15.27
2018-11-20T08:29:00.902Z,13.87
2018-11-20T08:32:02.364Z,14.47
2018-11-20T08:35:04.047Z,76.30
2018-11-20T08:37:59.332Z,18.93
2018-11-20T08:41:07.228Z,15.87
2018-11-20T08:44:08.677Z,15.00
2018-11-20T08:46:53.298Z,21.17
2018-11-20T08:49:41.430Z,25.50
2018-11-20T08:52:29.784Z,26.13
2018-11-20T08:55:17.754Z,23.67
2018-11-20T08:58:05.906Z,22.10
2018-11-20T09:01:01.359Z,14.93
2018-11-20T09:04:03.033Z,12.37
2018-11-20T09:06:47.083Z,10.73
2018-11-20T09:09:36.528Z,11.67
2018-11-20T09:12:38.858Z,9.03
2018-11-20T09:15:27.031Z,9.83
2018-11-20T09:18:10.908Z,8.70
2018-11-20T09:20:59.070Z,8.17
2018-11-20T09:24:06.602Z,8.10
2018-11-20T09:26:54.649Z,8.43
2018-11-20T09:29:43.651Z,9.83
2018-11-20T09:32:45.962Z,10.63
2018-11-20T09:35:33.979Z,10.27
2018-11-20T09:38:21.979Z,12.63
2018-11-20T09:41:20.285Z,18.60
2018-11-20T09:44:18.675Z,29.17
2018-11-20T09:47:17.603Z,17.57
2018-11-20T09:50:15.850Z,14.67
2018-11-20T09:53:20.733Z,14.77
2018-11-20T09:56:14.792Z,14.70
2018-11-20T09:59:13.592Z,11.83
2018-11-20T10:02:00.419Z,15.10
2018-11-20T10:04:49.930Z,12.90
2018-11-20T10:07:40.250Z,11.97
2018-11-20T10:10:29.736Z,9.13
2018-11-20T10:13:19.321Z,8.13
2018-11-20T10:16:11.743Z,7.43
2018-11-20T10:19:00.023Z,5.87
2018-11-20T10:22:03.485Z,5.03
2018-11-20T10:24:51.735Z,5.70
2018-11-20T10:27:39.852Z,5.20
2018-11-20T10:30:32.493Z,4.90
2018-11-20T10:33:39.948Z,4.33
2018-11-20T10:36:32.466Z,3.77
2018-11-20T10:39:32.003Z,3.23
2018-11-20T10:42:21.551Z,3.40
2018-11-20T10:45:15.877Z,3.00
2018-11-20T10:48:04.910Z,3.70
2018-11-20T10:50:53.710Z,2.63
2018-11-20T10:53:38.143Z,2.37
2018-11-20T10:56:21.426Z,2.10
2018-11-20T10:59:16.399Z,2.30
2018-11-20T11:02:24.624Z,2.93
2018-11-20T11:05:14.871Z,24.97
2018-11-20T11:08:03.298Z,5.13
2018-11-20T11:11:03.910Z,2.63
2018-11-20T11:13:52.626Z,2.23
2018-11-20T11:16:41.043Z,1.93
2018-11-20T11:19:33.261Z,2.23
2018-11-20T11:22:23.531Z,2.40
2018-11-20T11:25:09.741Z,2.43
2018-11-20T11:28:08.136Z,2.60
2018-11-20T11:30:57.622Z,2.30
2018-11-20T11:33:45.760Z,1.70
2018-11-20T11:36:35.919Z,2.07
2018-11-20T11:39:30.750Z,2.10
2018-11-20T11:42:19.880Z,2.33
2018-11-20T11:45:13.360Z,2.67
2018-11-20T11:48:13.086Z,2.27
2018-11-20T11:51:06.344Z,3.30
2018-11-20T11:54:14.289Z,2.57
2018-11-20T11:56:58.967Z,3.87
2018-11-20T12:00:02.614Z,3.87
2018-11-20T12:05:55.979Z,3.37
2018-11-20T12:08:39.385Z,3.63
2018-11-20T12:11:28.510Z,4.77
2018-11-20T12:14:16.584Z,5.30
2018-11-20T12:17:12.705Z,5.33
2018-11-20T12:20:01.101Z,5.13
2018-11-20T12:22:42.392Z,4.50
2018-11-20T12:25:23.884Z,6.83
2018-11-20T12:28:25.604Z,7.33
2018-11-20T12:31:33.574Z,10.77
2018-11-20T12:34:41.153Z,4.90
2018-11-20T12:37:31.112Z,4.80
2018-11-20T12:40:32.868Z,4.93
2018-11-20T12:43:19.149Z,4.40
2018-11-20T12:46:16.406Z,5.10
2018-11-20T12:49:12.415Z,8.00
2018-11-20T12:52:16.559Z,5.90
2018-11-20T12:54:56.910Z,5.20
2018-11-20T12:57:44.794Z,5.20
2018-11-20T13:00:31.165Z,8.07
2018-11-20T13:03:36.046Z,42.70
2018-11-20T13:06:28.600Z,16.03
2018-11-20T13:09:12.021Z,7.47
2018-11-20T13:12:07.277Z,7.20
2018-11-20T13:14:56.787Z,8.37
2018-11-20T13:17:45.201Z,8.43
2018-11-20T13:20:33.335Z,8.80
2018-11-20T13:23:21.607Z,9.93
2018-11-20T13:26:17.526Z,7.63
2018-11-20T13:29:16.334Z,6.10
2018-11-20T13:32:05.311Z,7.47
2018-11-20T13:35:00.961Z,5.17
2018-11-20T13:37:53.227Z,5.47
2018-11-20T13:41:21.250Z,4.83
2018-11-20T13:44:05.385Z,4.80
2018-11-20T13:46:58.300Z,4.60
2018-11-20T13:49:53.742Z,3.97
2018-11-20T13:52:43.308Z,4.07
2018-11-20T13:55:33.902Z,4.77
2018-11-20T13:58:42.130Z,5.93
2018-11-20T14:01:30.538Z,4.87
2018-11-20T14:04:18.667Z,5.13
2018-11-20T14:07:06.867Z,4.43
2018-11-20T14:09:56.232Z,4.80
2018-11-20T14:12:44.388Z,6.43
2018-11-20T14:15:32.853Z,6.20
2018-11-20T14:18:31.162Z,6.20
2018-11-20T14:21:19.613Z,5.57
2018-11-20T14:24:07.940Z,6.37
2018-11-20T14:27:05.347Z,6.57
2018-11-20T14:30:04.173Z,62.27
2018-11-20T14:33:12.130Z,8.77
2018-11-20T14:36:00.111Z,5.30
2018-11-20T14:38:48.328Z,6.73
2018-11-20T14:41:38.828Z,5.47
2018-11-20T14:44:23.398Z,5.90
2018-11-20T14:47:21.708Z,5.60
2018-11-20T14:50:10.735Z,5.70
2018-11-20T14:52:54.380Z,6.27
2018-11-20T14:55:44.282Z,6.33
2018-11-20T14:58:37.021Z,6.40
2018-11-20T15:01:35.618Z,5.63
2018-11-20T15:04:21.861Z,6.27
2018-11-20T15:07:14.109Z,6.53
2018-11-20T15:09:56.327Z,6.43
2018-11-20T15:12:58.518Z,6.20
2018-11-20T15:15:53.845Z,7.90
2018-11-20T15:18:46.367Z,8.13
2018-11-20T15:21:50.928Z,7.50
2018-11-20T15:24:48.449Z,7.50
2018-11-20T15:27:31.220Z,7.00
2018-11-20T15:30:19.521Z,7.07
2018-11-20T15:33:03.303Z,7.53
2018-11-20T15:35:52.935Z,7.47
2018-11-20T15:38:52.369Z,7.63
2018-11-20T15:41:34.138Z,8.23
2018-11-20T15:44:32.821Z,8.47
2018-11-20T15:47:22.309Z,8.60
2018-11-20T15:50:10.173Z,7.90
2018-11-20T15:53:07.054Z,9.67
2018-11-20T15:56:02.309Z,7.43
2018-11-20T15:59:00.775Z,8.13
2018-11-20T16:02:00.140Z,7.37
2018-11-20T16:04:48.347Z,7.73
2018-11-20T16:07:40.349Z,7.93
2018-11-20T16:10:43.530Z,8.03
2018-11-20T16:13:36.129Z,10.20
2018-11-20T16:16:25.800Z,19.93
2018-11-20T16:19:13.540Z,10.57
2018-11-20T16:22:17.301Z,9.13
2018-11-20T16:25:08.210Z,8.97
2018-11-20T16:28:02.207Z,8.87
2018-11-20T16:30:50.966Z,9.70
2018-11-20T16:33:51.164Z,10.80
2018-11-20T16:36:39.444Z,9.27
2018-11-20T16:39:35.366Z,8.93
2018-11-20T16:42:23.581Z,11.13
2018-11-20T16:45:22.406Z,10.60
2018-11-20T16:48:23.768Z,13.73
2018-11-20T16:51:11.891Z,13.00
2018-11-20T16:54:01.461Z,12.73
2018-11-20T16:56:56.770Z,12.00
2018-11-20T17:00:01.434Z,11.47
2018-11-20T17:02:59.620Z,12.13
2018-11-20T17:05:47.820Z,12.57
2018-11-20T17:08:43.205Z,15.57
2018-11-20T17:11:41.973Z,12.93
2018-11-20T17:14:31.502Z,14.93
2018-11-20T17:17:19.767Z,27.60
2018-11-20T17:20:18.457Z,17.60
2018-11-20T17:23:19.819Z,17.17
2018-11-20T17:26:11.883Z,18.30
2018-11-20T17:28:59.932Z,17.80
2018-11-20T17:32:00.920Z,17.07
2018-11-20T17:34:59.320Z,14.37
2018-11-20T17:38:04.358Z,17.83
2018-11-20T17:41:05.985Z,18.10
2018-11-20T17:43:55.565Z,21.43
2018-11-20T17:46:50.379Z,19.97
2018-11-20T17:49:38.702Z,20.40
2018-11-20T17:52:29.098Z,19.10
2018-11-20T17:55:17.296Z,20.60
2018-11-20T17:58:09.814Z,19.90
2018-11-20T18:01:17.747Z,21.17
2018-11-20T18:04:05.707Z,21.53
2018-11-20T18:06:47.245Z,21.30
2018-11-20T18:09:35.215Z,19.07
2018-11-20T18:12:23.129Z,29.20
2018-11-20T18:15:31.760Z,16.63
2018-11-20T18:18:24.180Z,18.30
2018-11-20T18:21:16.628Z,17.17
2018-11-20T18:24:24.443Z,17.30
2018-11-20T18:27:20.023Z,17.20
2018-11-20T18:30:22.315Z,19.10
2018-11-20T18:33:26.899Z,19.00
2018-11-20T18:36:28.605Z,15.57
2018-11-20T18:39:16.871Z,18.07
2018-11-20T18:42:05.099Z,16.40
2018-11-20T18:44:53.038Z,17.90
2018-11-20T18:47:53.995Z,18.53
2018-11-20T18:50:49.265Z,17.20
2018-11-20T18:53:32.526Z,19.07
2018-11-20T18:56:40.195Z,16.20
2018-11-20T18:59:35.418Z,17.23
2018-11-20T19:02:25.256Z,35.23
2018-11-20T19:05:17.755Z,17.07
2018-11-20T19:08:07.303Z,16.53
2018-11-20T19:10:55.687Z,15.10
2018-11-20T19:14:01.162Z,14.73
2018-11-20T19:16:53.380Z,13.60
2018-11-20T19:19:46.881Z,16.43
2018-11-20T19:22:35.051Z,13.13
2018-11-20T19:25:30.427Z,17.10
2018-11-20T19:28:20.081Z,17.90
2018-11-20T19:31:08.927Z,22.57
2018-11-20T19:34:05.129Z,20.00
2018-11-20T19:36:54.056Z,17.97
2018-11-20T19:39:44.455Z,18.43
2018-11-20T19:42:33.570Z,20.77
2018-11-20T19:45:23.132Z,19.53
2018-11-20T19:48:14.007Z,19.07
2018-11-20T19:51:41.987Z,18.23
2018-11-20T19:54:30.646Z,18.20
2018-11-20T19:57:22.046Z,19.10
2018-11-20T20:00:17.127Z,19.83
2018-11-20T20:03:04.854Z,24.80
2018-11-20T20:06:04.514Z,20.73
2018-11-20T20:08:51.901Z,19.53
2018-11-20T20:11:43.406Z,19.17
2018-11-20T20:14:22.842Z,19.97
2018-11-20T20:17:19.219Z,21.40
2018-11-20T20:20:06.518Z,21.00
2018-11-20T20:23:13.582Z,18.17
2018-11-20T20:26:01.077Z,19.37
2018-11-20T20:28:52.487Z,19.67
2018-11-20T20:31:40.930Z,17.73
2018-11-20T20:34:28.339Z,25.90
2018-11-20T20:37:17.858Z,23.03
2018-11-20T20:40:19.524Z,24.53
2018-11-20T20:43:07.184Z,21.60
2018-11-20T20:45:54.623Z,22.80
2018-11-20T20:48:58.509Z,22.47
2018-11-20T20:51:50.217Z,19.70
2018-11-20T20:54:38.027Z,22.77
2018-11-20T20:57:42.634Z,23.07
2018-11-20T21:00:31.170Z,22.20
2018-11-20T21:03:35.052Z,106.30
2018-11-20T21:06:32.162Z,28.17
2018-11-20T21:09:19.340Z,22.97
2018-11-20T21:12:23.435Z,23.90
2018-11-20T21:15:12.137Z,24.43
2018-11-20T21:18:06.951Z,36.77
2018-11-20T21:21:15.581Z,28.93
2018-11-20T21:24:08.500Z,25.97
2018-11-20T21:26:54.965Z,29.07
2018-11-20T21:29:49.951Z,27.87
2018-11-20T21:32:32.815Z,31.37
2018-11-20T21:35:15.185Z,28.53
2018-11-20T21:38:00.589Z,29.00
2018-11-20T21:40:48.137Z,28.00
2018-11-20T21:43:43.419Z,28.40
2018-11-20T21:46:35.239Z,38.63
2018-11-20T21:49:30.155Z,27.13
2018-11-20T21:52:17.435Z,24.63
2018-11-20T21:55:15.543Z,26.77
2018-11-20T21:58:13.413Z,22.70
2018-11-20T22:01:26.248Z,23.23
2018-11-20T22:04:14.247Z,20.90
2018-11-20T22:07:11.943Z,21.50
2018-11-20T22:10:19.390Z,19.40
2018-11-20T22:13:06.638Z,18.77
2018-11-20T22:15:54.317Z,22.60
2018-11-20T22:18:41.675Z,23.83
2018-11-20T22:21:35.192Z,26.17
2018-11-20T22:24:28.335Z,24.67
2018-11-20T22:27:13.024Z,25.93
2018-11-20T22:29:59.764Z,24.23
2018-11-20T22:32:48.535Z,33.13
2018-11-20T22:35:38.235Z,34.83
2018-11-20T22:38:31.502Z,28.00
2018-11-20T22:41:38.273Z,25.53
2018-11-20T22:44:17.809Z,25.60
2018-11-20T22:47:18.935Z,23.70
2018-11-20T22:50:17.540Z,25.13
2018-11-20T22:53:07.047Z,25.27
2018-11-20T22:55:54.758Z,22.77
2018-11-20T22:58:43.437Z,25.83
2018-11-20T23:01:33.550Z,24.63
2018-11-20T23:04:22.781Z,23.17
2018-11-20T23:07:14.469Z,21.93
2018-11-20T23:09:45.023Z,22.10
2018-11-20T23:12:15.791Z,21.33
2018-11-20T23:14:45.418Z,21.63
2018-11-20T23:17:18.650Z,21.63
2018-11-20T23:19:48.416Z,22.17
2018-11-20T23:22:18.841Z,21.13
2018-11-20T23:24:48.465Z,20.27
2018-11-20T23:27:19.042Z,20.37
2018-11-20T23:29:49.517Z,19.47
2018-11-20T23:32:19.897Z,21.07
2018-11-20T23:34:49.460Z,21.73
2018-11-20T23:37:19.178Z,19.83
2018-11-20T23:39:48.751Z,20.90
2018-11-20T23:42:23.874Z,21.10
2018-11-20T23:44:50.102Z,21.33
2018-11-20T23:47:21.797Z,19.33
2018-11-20T23:49:51.417Z,18.77
2018-11-20T23:52:21.425Z,20.83
2018-11-20T23:54:51.969Z,17.00
2018-11-20T23:57:21.706Z,16.43
2018-11-20T23:59:52.074Z,17.17
